Flight Track Log - Related Links

Times and Time Zones

All times are in EDT time to prevent confusion due to time zone crossing. See the AFR442 flight status page for this flight to view local times or setup timezone preferences in your user account.

Time Position Orientation Groundspeed Altitude Reporting Facility
EDT Latitude Longitude Course Direction KTS MPH feet Rate Location/Type
Wed 17:45:43 48.9957 2.5541 266° West 177 204 700  Level FlightAware
Wed 17:46:01 48.9945 2.5331 265° West 174 200 1,400 2,182 Climbing FlightAware
Wed 17:46:16 48.9933 2.5139 265° West 176 203 1,900 1,946 Climbing FlightAware
Wed 17:46:38 48.9919 2.4864 266° West 179 206 2,600 1,895 Climbing FlightAware
Wed 17:46:54 48.9910 2.4675 266° West 177 204 3,100 1,818 Climbing FlightAware
Wed 17:47:11 48.9901 2.4452 266° West 181 208 3,600 1,200 Climbing FlightAware
Wed 17:47:39 48.9885 2.4077 266° West 204 235 4,000 933 Climbing FlightAware
Wed 17:47:56 48.9867 2.3826 264° West 204 235 4,300 1,313 Climbing FlightAware
Wed 17:48:11 48.9846 2.3577 263° West 232 267 4,700 1,286 Climbing FlightAware
Wed 17:48:24 48.9804 2.3384 252° West 242 278 4,900 1,250 Climbing FlightAware
Wed 17:48:35 48.9744 2.3216 242° Southwest 251 289 5,200 2,000 Climbing FlightAware
Wed 17:48:42 48.9700 2.3110 238° Southwest 256 295 5,500 2,000 Climbing FlightAware
Wed 17:48:47 48.9665 2.3035 234° Southwest 259 298 5,600 1,333 Climbing FlightAware
Wed 17:48:51 48.9634 2.2979 230° Southwest 264 304 5,700 1,714 Climbing FlightAware
Wed 17:48:54 48.9607 2.2937 226° Southwest 268 308 5,800 1,636 Climbing FlightAware
Wed 17:49:02 48.9528 2.2833 221° Southwest 274 315 6,000 2,000 Climbing FlightAware
Wed 17:49:06 48.9488 2.2792 214° Southwest 277 319 6,200 3,000 Climbing FlightAware
Wed 17:49:10 48.9442 2.2750 211° Southwest 278 320 6,400 2,000 Climbing FlightAware
Wed 17:49:15 48.9389 2.2710 207° Southwest 282 325 6,500 2,400 Climbing FlightAware
Wed 17:49:20 48.9324 2.2671 202° Southwest 284 327 6,800 3,000 Climbing FlightAware
Wed 17:49:27 48.9232 2.2633 195° South 289 333 7,100 2,444 Climbing FlightAware
Wed 17:49:47 48.8974 2.2561 190° South 293 337 7,900 2,667 Climbing FlightAware
Wed 17:50:03 48.8752 2.2495 191° South 296 341 8,700 2,727 Climbing FlightAware
Wed 17:50:20 48.8528 2.2430 191° South 300 345 9,400 2,553 Climbing FlightAware
Wed 17:50:50 48.8102 2.2298 192° South 313 360 10,700 1,600 Climbing FlightAware
Wed 17:51:20 48.7647 2.2154 192° South 354 407 11,000 750 Climbing FlightAware
Wed 17:51:46 48.7224 2.2022 192° South 383 441 11,400 1,440 Climbing FlightAware
Wed 17:52:10 48.6795 2.1895 191° South 395 455 12,200 2,167 Climbing FlightAware
Wed 17:52:22 48.6575 2.1850 188° South 402 463 12,700 2,093 Climbing FlightAware
Wed 17:52:53 48.5983 2.1770 185° South 416 479 13,700 2,226 Climbing FlightAware
Wed 17:53:24 48.5394 2.1686 185° South 420 483 15,000 2,459 Climbing FlightAware
Wed 17:53:54 48.4796 2.1592 186° South 427 491 16,200 2,164 Climbing FlightAware
Wed 17:54:25 48.4193 2.1504 186° South 436 502 17,200 2,066 Climbing FlightAware
Wed 17:54:55 48.3580 2.1415 185° South 443 510 18,300 2,000 Climbing FlightAware
Wed 17:55:25 48.2961 2.1326 185° South 451 519 19,200 1,839 Climbing FlightAware
Wed 17:55:57 48.2302 2.1230 186° South 457 526 20,200 1,935 Climbing FlightAware
Wed 17:56:27 48.1656 2.1135 186° South 463 533 21,200 2,361 Climbing FlightAware
Wed 17:56:58 48.0998 2.1040 185° South 456 525 22,600 2,492 Climbing FlightAware
Wed 17:57:32 48.0301 2.0939 186° South 455 524 23,900 2,000 Climbing FlightAware
Wed 17:57:55 47.9801 2.0853 187° South 456 525 24,500 1,543 Climbing FlightAware
Wed 17:58:42 47.8853 2.0524 193° South 454 522 25,700 1,435 Climbing FlightAware
Wed 17:59:27 47.7990 2.0080 199° South 459 528 26,700 1,412 Climbing FlightAware
Wed 18:00:07 47.7170 1.9650 199° South 465 535 27,700 1,341 Climbing FlightAware
Wed 18:00:52 47.6350 1.9220 199° South 469 540 28,600 1,333 Climbing FlightAware
Wed 18:01:37 47.5340 1.8710 199° South 467 537 29,700 1,482 Climbing FlightAware
Wed 18:02:17 47.4520 1.8290 199° South 465 535 30,700 1,026 Climbing FlightAware
Wed 18:02:53 47.3773 1.7915 199° South 465 535 31,000 269 Climbing FlightAware
Wed 18:03:24 47.3131 1.7591 199° South 466 536 31,000  Level FlightAware
Wed 18:03:55 47.2500 1.7273 199° South 466 536 31,000  Level FlightAware
Wed 18:04:26 47.1881 1.6961 199° South 466 536 31,000  Level FlightAware
Wed 18:04:59 47.1195 1.6618 199° South 467 537 31,000  Level FlightAware
Wed 18:05:30 47.0570 1.6305 199° South 467 537 31,000  Level FlightAware
Wed 18:06:00 46.9954 1.5998 199° South 468 539 31,000  Level FlightAware
Wed 18:06:30 46.9335 1.5690 199° South 468 539 31,000  Level FlightAware
Wed 18:07:02 46.8674 1.5362 199° South 468 539 31,000  Level FlightAware
Wed 18:07:34 46.8032 1.5044 199° South 468 539 31,000  Level FlightAware
Wed 18:08:04 46.7404 1.4735 199° South 469 540 31,000  Level FlightAware
Wed 18:08:37 46.6760 1.4420 199° South 468 539 31,000  Level FlightAware
Wed 18:08:46 46.6556 1.4317 199° South 469 540 31,000  Level FlightAware
Wed 18:09:18 46.5896 1.3993 199° South 469 540 31,000  Level FlightAware
Wed 18:09:57 46.5110 1.3610 199° South 468 539 31,000  Level FlightAware
Wed 18:10:12 46.4795 1.3454 199° South 469 540 31,000  Level FlightAware
Wed 18:10:42 46.4164 1.3146 199° South 468 539 31,000  Level FlightAware
Wed 18:11:12 46.3549 1.2847 199° South 468 539 31,000  Level FlightAware
Wed 18:12:32 46.2060 1.2140 198° South 460 529 31,000  Level FlightAware
Wed 18:13:12 46.1190 1.1710 199° South 468 539 31,000  Level FlightAware
Wed 18:13:47 46.0490 1.1370 199° South 466 536 31,000  Level FlightAware
Wed 18:14:37 45.9580 1.0940 198° South 455 524 31,000  Level FlightAware
Wed 18:15:17 45.8900 1.0620 198° South 455 524 31,000  Level FlightAware
Wed 18:15:57 45.7930 1.0080 201° Southwest 452 520 31,000  Level FlightAware
Wed 18:16:42 45.7190 0.9240 218° Southwest 427 491 31,000  Level FlightAware
Wed 18:17:27 45.6440 0.8440 217° Southwest 428 493 31,000  Level FlightAware
Wed 18:18:07 45.5800 0.7770 216° Southwest 436 502 31,000  Level FlightAware
Wed 18:18:52 45.5070 0.7000 216° Southwest 438 504 31,000  Level FlightAware
Wed 18:19:32 45.4420 0.6320 216° Southwest 438 504 31,000  Level FlightAware
Wed 18:20:12 45.3770 0.5640 216° Southwest 438 504 31,000  Level FlightAware
Wed 18:20:57 45.3030 0.4880 216° Southwest 438 504 31,000  Level FlightAware
Wed 18:21:37 45.2370 0.4200 216° Southwest 438 504 31,000  Level FlightAware
Wed 18:22:22 45.1640 0.3440 216° Southwest 439 505 31,000  Level FlightAware
Wed 18:23:02 45.0980 0.2760 216° Southwest 440 506 31,000  Level FlightAware
Wed 18:23:42 45.0320 0.2090 216° Southwest 440 506 31,000  Level FlightAware
Wed 18:24:27 44.9580 0.1330 216° Southwest 440 506 31,000  Level FlightAware
Wed 18:25:07 44.8920 0.0660 216° Southwest 440 506 31,000  Level FlightAware
Wed 18:25:47 44.8260 -0.0010 216° Southwest 440 506 31,000  Level FlightAware
Wed 18:26:22 44.7690 -0.0600 216° Southwest 440 506 31,000  Level FlightAware
Wed 18:27:07 44.6940 -0.1350 215° Southwest 440 506 31,000  Level FlightAware
Wed 18:27:47 44.6310 -0.2040 218° Southwest 428 493 31,000  Level FlightAware
Wed 18:28:27 44.5690 -0.2760 220° Southwest 427 491 31,000  Level FlightAware
Wed 18:29:12 44.4990 -0.3560 219° Southwest 435 501 31,000  Level FlightAware
Wed 18:29:52 44.4350 -0.4270 218° Southwest 436 502 31,000  Level FlightAware
Wed 18:30:37 44.3650 -0.5060 219° Southwest 437 503 31,000  Level FlightAware
Wed 18:31:17 44.3020 -0.5760 219° Southwest 438 504 31,000  Level FlightAware
Wed 18:31:57 44.2380 -0.6480 219° Southwest 438 504 31,000  Level FlightAware
Wed 18:32:42 44.1640 -0.7250 217° Southwest 435 501 31,000  Level FlightAware
Wed 18:33:22 44.0960 -0.7890 214° Southwest 444 511 31,000  Level FlightAware
Wed 18:34:07 44.0190 -0.8610 214° Southwest 446 513 31,000  Level FlightAware
Wed 18:34:47 43.9520 -0.9230 214° Southwest 446 513 31,000  Level FlightAware
Wed 18:35:27 43.8830 -0.9880 214° Southwest 446 513 31,000  Level FlightAware
Wed 18:36:12 43.8050 -1.0600 214° Southwest 446 513 31,000  Level FlightAware
Wed 18:36:52 43.7370 -1.1230 214° Southwest 443 510 31,000  Level FlightAware
Wed 18:37:32 43.6710 -1.1840 214° Southwest 444 511 31,000  Level FlightAware
Wed 18:38:12 43.5980 -1.2510 214° Southwest 445 512 31,000  Level FlightAware
Wed 18:38:57 43.5170 -1.3110 208° Southwest 449 517 31,000  Level FlightAware
Wed 18:39:42 43.4280 -1.3680 205° Southwest 451 519 31,000  Level FlightAware
Wed 18:40:22 43.3550 -1.4140 205° Southwest 453 521 31,000  Level FlightAware
Wed 18:41:07 43.2690 -1.4660 204° Southwest 454 522 31,000  Level FlightAware
Wed 18:41:47 43.1940 -1.5130 205° Southwest 456 525 31,000  Level FlightAware
Wed 18:42:27 43.1140 -1.5620 204° Southwest 459 528 31,000  Level FlightAware
Wed 18:43:12 43.0260 -1.6160 204° Southwest 462 532 31,000  Level FlightAware
Wed 18:43:52 42.9480 -1.6640 204° Southwest 464 534 31,000  Level FlightAware
Wed 18:44:32 42.8720 -1.7110 204° Southwest 464 534 31,000  Level FlightAware
Wed 18:45:17 42.7850 -1.7630 204° Southwest 466 536 31,000  Level FlightAware
Wed 18:45:57 42.7080 -1.8100 204° Southwest 466 536 31,000  Level FlightAware
Wed 18:46:42 42.6170 -1.8650 204° Southwest 466 536 31,000  Level FlightAware
Wed 18:47:22 42.5400 -1.9120 204° Southwest 467 537 31,000  Level FlightAware
Wed 18:48:07 42.4480 -1.9670 204° Southwest 468 539 31,000  Level FlightAware
Wed 18:48:47 42.3680 -2.0150 204° Southwest 468 539 31,000  Level FlightAware
Wed 18:49:27 42.2920 -2.0600 204° Southwest 468 539 31,000  Level FlightAware
Wed 18:50:12 42.1980 -2.1160 204° Southwest 467 537 31,000  Level FlightAware
Wed 18:50:52 42.1210 -2.1620 204° Southwest 467 537 31,000  Level FlightAware
Wed 18:51:37 42.0310 -2.2160 204° Southwest 466 536 31,000  Level FlightAware
Wed 18:52:17 41.9520 -2.2620 203° Southwest 467 537 31,000  Level FlightAware
Wed 18:52:57 41.8750 -2.3080 204° Southwest 468 539 31,000  Level FlightAware
Wed 18:53:42 41.7820 -2.3620 203° Southwest 468 539 31,000  Level FlightAware
Wed 18:54:22 41.7030 -2.4090 204° Southwest 468 539 31,000  Level FlightAware
Wed 18:55:07 41.6150 -2.4610 204° Southwest 468 539 31,000  Level FlightAware
Wed 18:55:47 41.5360 -2.5060 203° Southwest 467 537 31,000  Level FlightAware
Wed 18:56:27 41.4570 -2.5530 204° Southwest 467 537 31,000  Level FlightAware
Wed 18:57:12 41.3680 -2.6040 203° Southwest 466 536 31,000  Level FlightAware
Wed 18:57:47 41.3060 -2.6480 208° Southwest 458 527 31,000  Level FlightAware
Wed 18:58:37 41.2150 -2.7290 214° Southwest 456 525 31,000  Level FlightAware
Wed 18:59:22 41.1360 -2.8020 215° Southwest 456 525 31,000  Level FlightAware
Wed 19:00:02 41.0650 -2.8670 215° Southwest 456 525 31,000  Level FlightAware
Wed 19:00:42 40.9970 -2.9300 215° Southwest 457 526 31,000  Level FlightAware
Wed 19:01:27 40.9190 -3.0010 215° Southwest 456 525 31,000  Level FlightAware
Wed 19:02:07 40.8480 -3.0650 214° Southwest 457 526 31,000  Level FlightAware
Wed 19:02:52 40.7710 -3.1350 215° Southwest 456 525 31,000  Level FlightAware
Wed 19:03:27 40.7100 -3.1900 214° Southwest 456 525 31,000  Level FlightAware
Wed 19:04:07 40.6380 -3.2550 214° Southwest 456 525 31,000  Level FlightAware
Wed 19:04:47 40.5700 -3.3150 214° Southwest 456 525 31,000  Level FlightAware
Wed 19:05:32 40.4920 -3.3860 215° Southwest 456 525 31,000  Level FlightAware
Wed 19:06:12 40.4250 -3.4460 214° Southwest 457 526 31,000  Level FlightAware
Wed 19:06:57 40.3430 -3.5180 214° Southwest 457 526 31,000  Level FlightAware
Wed 19:07:37 40.2730 -3.5810 214° Southwest 457 526 31,000  Level FlightAware
Wed 19:08:17 40.2040 -3.6420 214° Southwest 457 526 31,000  Level FlightAware
Wed 19:09:02 40.1260 -3.7110 214° Southwest 457 526 31,000  Level FlightAware
Wed 19:09:37 40.0630 -3.7670 214° Southwest 458 527 31,000  Level FlightAware
Wed 19:10:22 39.9850 -3.8350 214° Southwest 457 526 31,000  Level FlightAware
Wed 19:11:07 39.9040 -3.9070 214° Southwest 457 526 31,000  Level FlightAware
Wed 19:11:47 39.8350 -3.9660 213° Southwest 455 524 31,000  Level FlightAware
Wed 19:12:32 39.7600 -4.0330 214° Southwest 454 522 31,000  Level FlightAware
Wed 19:13:12 39.6880 -4.0950 214° Southwest 454 522 31,000  Level FlightAware
Wed 19:13:57 39.6090 -4.1640 214° Southwest 453 521 31,000  Level FlightAware
Wed 19:14:37 39.5380 -4.2250 214° Southwest 454 522 31,000  Level FlightAware
Wed 19:15:17 39.4680 -4.2860 214° Southwest 457 526 31,000  Level FlightAware
Wed 19:16:02 39.3900 -4.3520 213° Southwest 457 526 31,000  Level FlightAware
Wed 19:16:42 39.3200 -4.4120 214° Southwest 458 527 31,000  Level FlightAware
Wed 19:17:22 39.2490 -4.4730 214° Southwest 458 527 31,000  Level FlightAware
Wed 19:18:07 39.1680 -4.5430 214° Southwest 459 528 31,000  Level FlightAware
Wed 19:18:47 39.0980 -4.6020 213° Southwest 459 528 31,000  Level FlightAware
Wed 19:19:32 39.0180 -4.6700 213° Southwest 459 528 31,000  Level FlightAware
Wed 19:20:12 38.9480 -4.7300 214° Southwest 460 529 31,000  Level FlightAware
Wed 19:20:52 38.8800 -4.7870 213° Southwest 461 531 31,000  Level FlightAware
Wed 19:21:37 38.7950 -4.8590 213° Southwest 462 532 31,000  Level FlightAware
Wed 19:22:17 38.7240 -4.9190 213° Southwest 462 532 31,000  Level FlightAware
Wed 19:22:57 38.6510 -4.9800 213° Southwest 462 532 31,000  Level FlightAware
Wed 19:23:42 38.5770 -5.0430 214° Southwest 462 532 31,000  Level FlightAware
Wed 19:24:52 38.4430 -5.1410 210° Southwest 468 539 31,000  Level FlightAware
Wed 19:25:32 38.3640 -5.1900 206° Southwest 467 537 31,000  Level FlightAware
Wed 19:26:17 38.2770 -5.2430 206° Southwest 466 536 31,000  Level FlightAware
Wed 19:26:57 38.2020 -5.2890 206° Southwest 466 536 31,000  Level FlightAware
Wed 19:27:42 38.1120 -5.3440 206° Southwest 465 535 31,000  Level FlightAware
Wed 19:28:22 38.0350 -5.3920 206° Southwest 465 535 31,000  Level FlightAware
Wed 19:29:02 37.9580 -5.4390 206° Southwest 464 534 31,000  Level FlightAware
Wed 19:29:47 37.8680 -5.4950 206° Southwest 464 534 31,000  Level FlightAware
Wed 19:30:27 37.7930 -5.5410 206° Southwest 465 535 31,000 282 Level FlightAware
Wed 19:31:12 37.7050 -5.5940 205° Southwest 470 541 31,400 847 Climbing FlightAware
Wed 19:31:52 37.6280 -5.6410 206° Southwest 468 539 32,200 1,129 Climbing FlightAware
Wed 19:32:37 37.5380 -5.6950 205° Southwest 468 539 33,000 565 Climbing FlightAware
Wed 19:33:17 37.4610 -5.7420 206° Southwest 466 536 33,000  Level FlightAware
Wed 19:33:57 37.3900 -5.8040 215° Southwest 456 525 33,000  Level FlightAware
Wed 19:34:42 37.3180 -5.8790 220° Southwest 454 522 33,000  Level FlightAware
Wed 19:35:22 37.2550 -5.9460 220° Southwest 454 522 33,000  Level FlightAware
Wed 19:36:07 37.1800 -6.0240 220° Southwest 454 522 33,000  Level FlightAware
Wed 19:36:47 37.1170 -6.0920 221° Southwest 454 522 33,000  Level FlightAware
Wed 19:37:27 37.0540 -6.1580 220° Southwest 452 520 33,000  Level FlightAware
Wed 19:38:07 36.9890 -6.2270 220° Southwest 451 519 33,000  Level FlightAware
Wed 19:38:52 36.9190 -6.3010 220° Southwest 449 517 33,000  Level FlightAware
Wed 19:39:37 36.8450 -6.3780 220° Southwest 449 517 33,000  Level FlightAware
Wed 19:40:17 36.7810 -6.4450 220° Southwest 449 517 33,000  Level FlightAware
Wed 19:40:57 36.7200 -6.5090 220° Southwest 448 516 33,000  Level FlightAware
Wed 19:41:42 36.6490 -6.5820 220° Southwest 450 518 33,000  Level FlightAware
Wed 19:42:17 36.5950 -6.6380 220° Southwest 449 517 33,000  Level FlightAware
Wed 19:43:02 36.5220 -6.7140 220° Southwest 446 513 33,000  Level FlightAware
Wed 19:43:47 36.4490 -6.7880 219° Southwest 447 514 33,000  Level FlightAware
Wed 19:44:27 36.3850 -6.8550 220° Southwest 447 514 33,000  Level FlightAware
Wed 19:45:12 36.3120 -6.9300 220° Southwest 448 516 33,000  Level FlightAware
Wed 19:45:52 36.2470 -6.9960 219° Southwest 455 524 33,000  Level FlightAware
Wed 19:46:37 36.1740 -7.0710 220° Southwest 456 525 33,000  Level FlightAware
Wed 19:47:17 36.1090 -7.1380 220° Southwest 457 526 33,000  Level FlightAware
Wed 19:47:57 36.0430 -7.2040 219° Southwest 456 525 33,000  Level FlightAware
Wed 19:48:42 35.9700 -7.2790 220° Southwest 456 525 33,000  Level FlightAware
Wed 19:49:22 35.9050 -7.3450 219° Southwest 455 524 33,000  Level FlightAware
Wed 19:50:07 35.8310 -7.4190 219° Southwest 455 524 33,000  Level FlightAware
Wed 19:50:47 35.7660 -7.4840 219° Southwest 454 522 33,000  Level FlightAware
Wed 19:51:27 35.7010 -7.5490 219° Southwest 454 522 33,000  Level FlightAware
Wed 19:52:12 35.6270 -7.6220 219° Southwest 453 521 33,000  Level FlightAware
Wed 19:52:52 35.5630 -7.6860 219° Southwest 453 521 33,000  Level FlightAware
Wed 19:53:32 35.4970 -7.7510 219° Southwest 452 520 33,000  Level FlightAware
Wed 19:54:17 35.4250 -7.8230 219° Southwest 451 519 33,000  Level FlightAware
Wed 19:54:57 35.3590 -7.8880 219° Southwest 445 512 33,000  Level FlightAware
Wed 19:55:37 35.2940 -7.9530 219° Southwest 446 513 33,000  Level FlightAware
Wed 19:56:22 35.2220 -8.0250 219° Southwest 453 521 33,000  Level FlightAware
Wed 19:57:02 35.1570 -8.0900 219° Southwest 452 520 33,000  Level FlightAware
Wed 19:57:47 35.0830 -8.1620 219° Southwest 451 519 33,000  Level FlightAware
Wed 19:58:27 35.0310 -8.2140 219° Southwest 451 519 33,000  Level FlightAware
Wed 19:59:12 34.9460 -8.2980 219° Southwest 441 507 33,000  Level FlightAware
Wed 19:59:52 34.8820 -8.3600 218° Southwest 441 507 33,000  Level FlightAware
Wed 20:00:32 34.8170 -8.4240 219° Southwest 441 507 33,000  Level FlightAware
Wed 20:01:12 34.7520 -8.4870 219° Southwest 441 507 33,000  Level FlightAware
Wed 20:01:57 34.6890 -8.5490 219° Southwest 441 507 33,000  Level FlightAware
Wed 20:02:37 34.6170 -8.6180 218° Southwest 441 507 33,000  Level FlightAware
Wed 20:03:17 34.5590 -8.6750 219° Southwest 441 507 33,000  Level FlightAware
Wed 20:04:17 34.4630 -8.7690 219° Southwest 441 507 33,000  Level FlightAware
Wed 20:04:57 34.4090 -8.8220 219° Southwest 441 507 33,000  Level FlightAware
Wed 20:05:37 34.3550 -8.8750 219° Southwest 441 507 33,000  Level FlightAware
Wed 20:06:27 34.2870 -8.9410 219° Southwest 441 507 33,000  Level FlightAware
Wed 20:07:07 34.2330 -8.9930 219° Southwest 441 507 33,000  Level FlightAware
Wed 20:07:47 34.1790 -9.0460 219° Southwest 441 507 33,000  Level FlightAware
Wed 20:08:27 34.1260 -9.0990 220° Southwest 441 507 33,000  Level FlightAware
Wed 20:09:07 34.0720 -9.1520 219° Southwest 441 507 33,000  Level FlightAware
Wed 20:09:47 34.0180 -9.2040 219° Southwest 441 507 33,000  Level FlightAware
Wed 20:10:37 33.9500 -9.2700 219° Southwest 441 507 33,000  Level FlightAware
Wed 20:11:17 33.8960 -9.3230 219° Southwest 441 507 33,000  Level FlightAware
Wed 20:11:57 33.8420 -9.3750 219° Southwest 441 507 33,000  Level FlightAware
Wed 20:12:37 33.7890 -9.4280 220° Southwest 441 507 33,000  Level FlightAware
Wed 20:13:17 33.7350 -9.4800 219° Southwest 441 507 33,000 21 Level FlightAware
Wed 20:15:00 33.5611 -9.6229 214° Southwest  Level Estimated
Wed 20:16:00 33.4597 -9.7058 214° Southwest  Level Estimated
Wed 20:17:00 33.3583 -9.7886 214° Southwest  Level Estimated
Wed 20:18:00 33.2568 -9.8712 214° Southwest  Level Estimated
Wed 20:19:00 33.1553 -9.9536 214° Southwest  Level Estimated
Wed 20:20:00 33.0537 -10.0358 214° Southwest  Level Estimated
Wed 20:21:00 32.9520 -10.1178 214° Southwest  Level Estimated
Wed 20:22:00 32.8503 -10.1996 214° Southwest  Level Estimated
Wed 20:23:00 32.7486 -10.2812 214° Southwest  Level Estimated
Wed 20:24:00 32.6467 -10.3626 214° Southwest  Level Estimated
Wed 20:25:00 32.5449 -10.4439 214° Southwest  Level Estimated
Wed 20:26:00 32.4430 -10.5250 214° Southwest  Level Estimated
Wed 20:27:00 32.3410 -10.6059 214° Southwest  Level Estimated
Wed 20:28:00 32.2390 -10.6866 214° Southwest  Level Estimated
Wed 20:29:00 32.1369 -10.7671 214° Southwest  Level Estimated
Wed 20:30:00 32.0348 -10.8475 214° Southwest  Level Estimated
Wed 20:31:00 31.9326 -10.9276 214° Southwest  Level Estimated
Wed 20:32:00 31.8304 -11.0076 214° Southwest  Level Estimated
Wed 20:33:00 31.7281 -11.0874 214° Southwest  Level Estimated
Wed 20:34:00 31.6258 -11.1671 214° Southwest  Level Estimated
Wed 20:35:00 31.5234 -11.2465 213° Southwest  Level Estimated
Wed 20:36:00 31.4210 -11.3258 213° Southwest  Level Estimated
Wed 20:37:00 31.3186 -11.4049 213° Southwest  Level Estimated
Wed 20:38:00 31.2160 -11.4839 213° Southwest  Level Estimated
Wed 20:39:00 31.1135 -11.5626 213° Southwest  Level Estimated
Wed 20:40:00 31.0109 -11.6412 213° Southwest  Level Estimated
Wed 20:41:00 30.9082 -11.7197 213° Southwest  Level Estimated
Wed 20:42:00 30.8055 -11.7979 213° Southwest  Level Estimated
Wed 20:43:00 30.7027 -11.8760 213° Southwest  Level Estimated
Wed 20:44:00 30.5999 -11.9539 213° Southwest  Level Estimated
Wed 20:45:00 30.4971 -12.0317 213° Southwest  Level Estimated
Wed 20:46:00 30.3942 -12.1093 213° Southwest  Level Estimated
Wed 20:47:00 30.2913 -12.1868 213° Southwest  Level Estimated
Wed 20:48:00 30.1883 -12.2640 213° Southwest  Level Estimated
Wed 20:49:00 30.0853 -12.3411 213° Southwest  Level Estimated
Wed 20:50:00 29.9822 -12.4181 213° Southwest  Level Estimated
Wed 20:51:00 29.8791 -12.4949 213° Southwest  Level Estimated
Wed 20:52:00 29.7759 -12.5715 213° Southwest  Level Estimated
Wed 20:53:00 29.6727 -12.6480 213° Southwest  Level Estimated
Wed 20:54:00 29.5694 -12.7243 213° Southwest  Level Estimated
Wed 20:55:00 29.4662 -12.8005 213° Southwest  Level Estimated
Wed 20:56:00 29.3628 -12.8765 213° Southwest  Level Estimated
Wed 20:57:00 29.2594 -12.9523 213° Southwest  Level Estimated
Wed 20:58:00 29.1560 -13.0280 213° Southwest  Level Estimated
Wed 20:59:00 29.0525 -13.1036 213° Southwest  Level Estimated
Wed 20:59:42 28.8730 -13.7190 213° Southwest 454 522 34,000  Level FlightAware
Wed 21:00:00 28.9490 -13.1790 213° Southwest  Level Estimated
Wed 21:00:17 28.8140 -13.7610 212° Southwest 454 522 34,000  Level FlightAware
Wed 21:01:02 28.7390 -13.8140 212° Southwest 459 528 34,000  Level FlightAware
Wed 21:01:47 28.6510 -13.8770 212° Southwest 458 527 34,000  Level FlightAware
Wed 21:02:57 28.5240 -13.9660 212° Southwest 455 524 34,000  Level FlightAware
Wed 21:04:07 28.3970 -14.0560 212° Southwest 457 526 34,000  Level FlightAware
Wed 21:05:17 28.2690 -14.1460 212° Southwest 458 527 34,000  Level FlightAware
Wed 21:06:27 28.1390 -14.2370 212° Southwest 458 527 34,000  Level FlightAware
Wed 21:07:37 28.0130 -14.3250 212° Southwest 457 526 34,000  Level FlightAware
Wed 21:08:17 27.9390 -14.3760 211° Southwest 457 526 34,000  Level FlightAware
Wed 21:09:02 27.8560 -14.4340 212° Southwest 457 526 34,000  Level FlightAware
Wed 21:09:42 27.7810 -14.4860 212° Southwest 457 526 34,000  Level FlightAware
Wed 21:10:27 27.7010 -14.5410 211° Southwest 457 526 34,000  Level FlightAware
Wed 21:11:07 27.6260 -14.5930 212° Southwest 457 526 34,000  Level FlightAware
Wed 21:11:52 27.5440 -14.6500 212° Southwest 457 526 34,000  Level FlightAware
Wed 21:12:32 27.4700 -14.7010 211° Southwest 457 526 34,000  Level FlightAware
Wed 21:13:12 27.3970 -14.7510 211° Southwest 458 527 34,000  Level FlightAware
Wed 21:13:57 27.3150 -14.8070 211° Southwest 458 527 34,000  Level FlightAware
Wed 21:14:37 27.2390 -14.8600 212° Southwest 460 529 34,000  Level FlightAware
Wed 21:15:22 27.1570 -14.9150 211° Southwest 460 529 34,000  Level FlightAware
Wed 21:16:02 27.0820 -14.9670 212° Southwest 460 529 34,000  Level FlightAware
Wed 21:16:42 27.0090 -15.0170 211° Southwest 467 537 34,000  Level FlightAware
Wed 21:17:27 26.9260 -15.0730 211° Southwest 467 537 34,000  Level FlightAware
Wed 21:18:07 26.8510 -15.1240 211° Southwest 467 537 34,000  Level FlightAware
Wed 21:18:47 26.7780 -15.1740 211° Southwest 467 537 34,000  Level FlightAware
Wed 21:19:32 26.6930 -15.2310 211° Southwest 467 537 34,000  Level FlightAware
Wed 21:20:12 26.6200 -15.2810 211° Southwest 467 537 34,000  Level FlightAware
Wed 21:20:57 26.5360 -15.3380 211° Southwest 467 537 34,000  Level FlightAware
Wed 21:21:37 26.4600 -15.3890 211° Southwest 467 537 34,000  Level FlightAware
Wed 21:22:22 26.3780 -15.4440 211° Southwest 468 539 34,000  Level FlightAware
Wed 21:23:02 26.3030 -15.4950 211° Southwest 468 539 34,000  Level FlightAware
Wed 21:23:42 26.2290 -15.5440 211° Southwest 469 540 34,000  Level FlightAware
Wed 21:24:27 26.1440 -15.6010 211° Southwest 468 539 34,000  Level FlightAware
Wed 21:25:07 26.0710 -15.6500 211° Southwest 468 539 34,000  Level FlightAware
Wed 21:25:52 25.9880 -15.7060 211° Southwest 469 540 34,000  Level FlightAware
Wed 21:26:32 25.9120 -15.7560 211° Southwest 469 540 34,000  Level FlightAware
Wed 21:27:12 25.8380 -15.8060 211° Southwest 470 541 34,000  Level FlightAware
Wed 21:27:57 25.7530 -15.8620 211° Southwest 470 541 34,000  Level FlightAware
Wed 21:28:37 25.6790 -15.9110 211° Southwest 471 542 34,000  Level FlightAware
Wed 21:29:22 25.5930 -15.9680 211° Southwest 472 543 34,000  Level FlightAware
Wed 21:30:02 25.5250 -16.0130 211° Southwest 473 544 34,000  Level FlightAware
Wed 21:30:47 25.4370 -16.0710 211° Southwest 467 537 34,000  Level FlightAware
Wed 21:31:27 25.3560 -16.1250 211° Southwest 467 537 34,000  Level FlightAware
Wed 21:32:07 25.2810 -16.1740 211° Southwest 468 539 34,000  Level FlightAware
Wed 21:32:52 25.1950 -16.2310 211° Southwest 468 539 34,000  Level FlightAware
Wed 21:33:32 25.1180 -16.2810 210° Southwest 469 540 34,000  Level FlightAware
Wed 21:34:12 25.0430 -16.3300 211° Southwest 469 540 34,000  Level FlightAware
Wed 21:34:52 24.9660 -16.3810 211° Southwest 469 540 34,000  Level FlightAware
Wed 21:35:37 24.8820 -16.4360 211° Southwest 471 542 34,000  Level FlightAware
Wed 21:36:12 24.8140 -16.4800 210° Southwest 471 542 34,000  Level FlightAware
Wed 21:37:02 24.7190 -16.5420 211° Southwest 471 542 34,000  Level FlightAware
Wed 21:37:42 24.6430 -16.5910 210° Southwest 471 542 34,000  Level FlightAware
Wed 21:38:17 24.5800 -16.6330 211° Southwest 469 540 34,000  Level FlightAware
Wed 21:39:07 24.4820 -16.6960 210° Southwest 469 540 34,000  Level FlightAware
Wed 21:39:52 24.3980 -16.7510 211° Southwest 471 542 34,000  Level FlightAware
Wed 21:40:32 24.3200 -16.8010 210° Southwest 471 542 34,000  Level FlightAware
Wed 21:41:27 24.2150 -16.8690 211° Southwest 472 543 34,000  Level FlightAware
Wed 21:42:22 24.1250 -16.9280 211° Southwest 472 543 34,000  Level FlightAware
Wed 21:43:12 24.0220 -16.9940 210° Southwest 472 543 34,000  Level FlightAware
Wed 21:43:52 23.9450 -17.0420 210° Southwest 472 543 34,000  Level FlightAware
Wed 21:44:37 23.8720 -17.0910 212° Southwest 472 543 34,000  Level FlightAware
Wed 21:45:27 23.7930 -17.1430 211° Southwest 472 543 34,000  Level FlightAware
Wed 21:46:17 23.6700 -17.2200 210° Southwest 470 541 34,000  Level FlightAware
Wed 21:46:57 23.6060 -17.2610 210° Southwest 470 541 34,000  Level FlightAware
Wed 21:47:42 23.5010 -17.3270 210° Southwest 470 541 34,000  Level FlightAware
Wed 21:48:27 23.4270 -17.3730 210° Southwest 470 541 34,000  Level FlightAware
Wed 21:49:07 23.3630 -17.4130 210° Southwest 470 541 34,000  Level FlightAware
Wed 21:49:47 23.2630 -17.4780 211° Southwest 471 542 34,000  Level FlightAware
Wed 21:50:32 23.1890 -17.5250 210° Southwest 471 542 34,000  Level FlightAware
Wed 21:51:12 23.1250 -17.5650 210° Southwest 471 542 34,000  Level FlightAware
Wed 21:51:52 23.0610 -17.6050 210° Southwest 471 542 34,000  Level FlightAware
Wed 21:52:32 22.9960 -17.6450 210° Southwest 471 542 34,000  Level FlightAware
Wed 21:53:22 22.8530 -17.7370 211° Southwest 480 552 34,000  Level FlightAware
Wed 21:53:57 22.7900 -17.7770 210° Southwest 480 552 34,000  Level FlightAware
Wed 21:54:37 22.7250 -17.8170 210° Southwest 480 552 34,000  Level FlightAware
Wed 21:55:27 22.6430 -17.8690 210° Southwest 480 552 34,000  Level FlightAware
Wed 21:56:07 22.5780 -17.9090 210° Southwest 480 552 34,000  Level FlightAware
Wed 21:56:47 22.5120 -17.9500 210° Southwest 480 552 34,000  Level FlightAware
Wed 21:57:27 22.4470 -17.9910 210° Southwest 480 552 34,000  Level FlightAware
Wed 21:58:17 22.3650 -18.0420 210° Southwest 480 552 34,000  Level FlightAware
Wed 21:58:57 22.3000 -18.0830 210° Southwest 480 552 34,000  Level FlightAware
Wed 21:59:37 22.2340 -18.1240 210° Southwest 480 552 34,000  Level FlightAware
Wed 22:00:17 22.1690 -18.1650 210° Southwest 480 552 34,000  Level FlightAware
Wed 22:00:57 22.1030 -18.2050 209° Southwest 480 552 34,000  Level FlightAware
Wed 22:01:47 22.0220 -18.2560 210° Southwest 480 552 34,000  Level FlightAware
Wed 22:02:27 21.9560 -18.2970 210° Southwest 480 552 34,000  Level FlightAware
Wed 22:03:07 21.8910 -18.3380 210° Southwest 480 552 34,000 Level FlightAware
Wed 22:05:00 21.6908 -18.4625 210° Southwest  Level Estimated
Wed 22:06:00 21.5845 -18.5285 210° Southwest  Level Estimated
Wed 22:07:00 21.4782 -18.5944 210° Southwest  Level Estimated
Wed 22:08:00 21.3718 -18.6601 210° Southwest  Level Estimated
Wed 22:09:00 21.2654 -18.7258 210° Southwest  Level Estimated
Wed 22:10:00 21.1590 -18.7914 210° Southwest  Level Estimated
Wed 22:11:00 21.0526 -18.8569 210° Southwest  Level Estimated
Wed 22:12:00 20.9461 -18.9223 210° Southwest  Level Estimated
Wed 22:13:00 20.8396 -18.9876 210° Southwest  Level Estimated
Wed 22:14:00 20.7331 -19.0528 210° Southwest  Level Estimated
Wed 22:15:00 20.6266 -19.1179 210° Southwest  Level Estimated
Wed 22:16:00 20.5200 -19.1830 210° Southwest  Level Estimated
Wed 22:17:00 20.4135 -19.2479 210° Southwest  Level Estimated
Wed 22:18:00 20.3068 -19.3127 210° Southwest  Level Estimated
Wed 22:19:00 20.2002 -19.3775 210° Southwest  Level Estimated
Wed 22:20:00 20.0935 -19.4422 210° Southwest  Level Estimated
Wed 22:21:00 19.9869 -19.5068 210° Southwest  Level Estimated
Wed 22:22:00 19.8801 -19.5713 210° Southwest  Level Estimated
Wed 22:23:00 19.7734 -19.6357 210° Southwest  Level Estimated
Wed 22:24:00 19.6667 -19.7000 210° Southwest  Level Estimated
Wed 22:25:00 19.5599 -19.7642 210° Southwest  Level Estimated
Wed 22:26:00 19.4531 -19.8284 210° Southwest  Level Estimated
Wed 22:27:00 19.3463 -19.8925 210° Southwest  Level Estimated
Wed 22:28:00 19.2394 -19.9564 209° Southwest  Level Estimated
Wed 22:29:00 19.1326 -20.0203 209° Southwest  Level Estimated
Wed 22:30:00 19.0257 -20.0842 209° Southwest  Level Estimated
Wed 22:31:00 18.9188 -20.1479 209° Southwest  Level Estimated
Wed 22:32:00 18.8118 -20.2115 209° Southwest  Level Estimated
Wed 22:33:00 18.7049 -20.2751 209° Southwest  Level Estimated
Wed 22:34:00 18.5979 -20.3386 209° Southwest  Level Estimated
Wed 22:35:00 18.4909 -20.4020 209° Southwest  Level Estimated
Wed 22:36:00 18.3839 -20.4653 209° Southwest  Level Estimated
Wed 22:37:00 18.2769 -20.5286 209° Southwest  Level Estimated
Wed 22:38:00 18.1698 -20.5918 209° Southwest  Level Estimated
Wed 22:39:00 18.0627 -20.6549 209° Southwest  Level Estimated
Wed 22:40:00 17.9556 -20.7179 209° Southwest  Level Estimated
Wed 22:41:00 17.8485 -20.7808 209° Southwest  Level Estimated
Wed 22:42:00 17.7414 -20.8437 209° Southwest  Level Estimated
Wed 22:43:00 17.6342 -20.9065 209° Southwest  Level Estimated
Wed 22:44:00 17.5270 -20.9692 209° Southwest  Level Estimated
Wed 22:45:00 17.4198 -21.0319 209° Southwest  Level Estimated
Wed 22:46:00 17.3126 -21.0945 209° Southwest  Level Estimated
Wed 22:47:00 17.2054 -21.1570 209° Southwest  Level Estimated
Wed 22:48:00 17.0981 -21.2194 209° Southwest  Level Estimated
Wed 22:49:00 16.9908 -21.2817 209° Southwest  Level Estimated
Wed 22:50:00 16.8835 -21.3440 209° Southwest  Level Estimated
Wed 22:51:00 16.7762 -21.4063 209° Southwest  Level Estimated
Wed 22:52:00 16.6689 -21.4684 209° Southwest  Level Estimated
Wed 22:53:00 16.5616 -21.5305 209° Southwest  Level Estimated
Wed 22:54:00 16.4542 -21.5925 209° Southwest  Level Estimated
Wed 22:55:00 16.3468 -21.6544 209° Southwest  Level Estimated
Wed 22:56:00 16.2394 -21.7163 209° Southwest  Level Estimated
Wed 22:57:00 16.1320 -21.7781 209° Southwest  Level Estimated
Wed 22:58:00 16.0245 -21.8398 209° Southwest  Level Estimated
Wed 22:59:00 15.9171 -21.9015 209° Southwest  Level Estimated
Wed 23:00:00 15.8096 -21.9631 209° Southwest  Level Estimated
Wed 23:01:00 15.7021 -22.0246 209° Southwest  Level Estimated
Wed 23:02:00 15.5946 -22.0861 209° Southwest  Level Estimated
Wed 23:03:00 15.4871 -22.1475 209° Southwest  Level Estimated
Wed 23:04:00 15.3795 -22.2089 209° Southwest  Level Estimated
Wed 23:05:00 15.2719 -22.2701 209° Southwest  Level Estimated
Wed 23:06:00 15.1644 -22.3314 209° Southwest  Level Estimated
Wed 23:07:00 15.0568 -22.3925 209° Southwest  Level Estimated
Wed 23:08:00 14.9492 -22.4536 209° Southwest  Level Estimated
Wed 23:09:00 14.8415 -22.5146 209° Southwest  Level Estimated
Wed 23:10:00 14.7339 -22.5756 209° Southwest  Level Estimated
Wed 23:11:00 14.6262 -22.6365 209° Southwest  Level Estimated
Wed 23:12:00 14.5186 -22.6974 209° Southwest  Level Estimated
Wed 23:13:00 14.4109 -22.7582 209° Southwest  Level Estimated
Wed 23:14:00 14.3032 -22.8189 209° Southwest  Level Estimated
Wed 23:15:00 14.1954 -22.8796 209° Southwest  Level Estimated
Wed 23:16:00 14.0877 -22.9402 209° Southwest  Level Estimated
Wed 23:17:00 13.9800 -23.0007 209° Southwest  Level Estimated
Wed 23:18:00 13.8722 -23.0613 209° Southwest  Level Estimated
Wed 23:19:00 13.7644 -23.1217 209° Southwest  Level Estimated
Wed 23:20:00 13.6566 -23.1821 209° Southwest  Level Estimated
Wed 23:21:00 13.5488 -23.2424 209° Southwest  Level Estimated
Wed 23:22:00 13.4410 -23.3027 209° Southwest  Level Estimated
Wed 23:23:00 13.3331 -23.3629 209° Southwest  Level Estimated
Wed 23:24:00 13.2253 -23.4231 209° Southwest  Level Estimated
Wed 23:25:00 13.1174 -23.4832 208° Southwest  Level Estimated
Wed 23:26:00 13.0095 -23.5433 208° Southwest  Level Estimated
Wed 23:27:00 12.9016 -23.6033 208° Southwest  Level Estimated
Wed 23:28:00 12.7937 -23.6633 208° Southwest  Level Estimated
Wed 23:29:00 12.6858 -23.7232 208° Southwest  Level Estimated
Wed 23:30:00 12.5779 -23.7831 208° Southwest  Level Estimated
Wed 23:31:00 12.4699 -23.8429 208° Southwest  Level Estimated
Wed 23:32:00 12.3619 -23.9026 208° Southwest  Level Estimated
Wed 23:33:00 12.2540 -23.9623 208° Southwest  Level Estimated
Wed 23:34:00 12.1460 -24.0220 208° Southwest  Level Estimated
Wed 23:35:00 12.0380 -24.0816 208° Southwest  Level Estimated
Wed 23:36:00 11.9300 -24.1412 208° Southwest  Level Estimated
Wed 23:37:00 11.8219 -24.2007 208° Southwest  Level Estimated
Wed 23:38:00 11.7139 -24.2602 208° Southwest  Level Estimated
Wed 23:39:00 11.6059 -24.3196 208° Southwest  Level Estimated
Wed 23:40:00 11.4978 -24.3790 208° Southwest  Level Estimated
Wed 23:41:00 11.3897 -24.4383 208° Southwest  Level Estimated
Wed 23:42:00 11.2816 -24.4976 208° Southwest  Level Estimated
Wed 23:43:00 11.1735 -24.5569 208° Southwest  Level Estimated
Wed 23:44:00 11.0654 -24.6161 208° Southwest  Level Estimated
Wed 23:45:00 10.9573 -24.6752 208° Southwest  Level Estimated
Wed 23:46:00 10.8492 -24.7343 208° Southwest  Level Estimated
Wed 23:47:00 10.7410 -24.7934 208° Southwest  Level Estimated
Wed 23:48:00 10.6328 -24.8524 208° Southwest  Level Estimated
Wed 23:49:00 10.5247 -24.9114 208° Southwest  Level Estimated
Wed 23:50:00 10.4165 -24.9704 208° Southwest  Level Estimated
Wed 23:51:00 10.3083 -25.0293 208° Southwest  Level Estimated
Wed 23:52:00 10.2001 -25.0882 208° Southwest  Level Estimated
Wed 23:53:00 10.0919 -25.1470 208° Southwest  Level Estimated
Wed 23:54:00 9.9837 -25.2058 208° Southwest  Level Estimated
Wed 23:55:00 9.8755 -25.2645 208° Southwest  Level Estimated
Wed 23:56:00 9.7672 -25.3232 208° Southwest  Level Estimated
Wed 23:57:00 9.6590 -25.3819 208° Southwest  Level Estimated
Wed 23:58:00 9.5507 -25.4405 208° Southwest  Level Estimated
Wed 23:59:00 9.4424 -25.4991 208° Southwest  Level Estimated
Thu 00:00:00 9.3342 -25.5577 208° Southwest  Level Estimated
Thu 00:01:00 9.2259 -25.6162 208° Southwest  Level Estimated
Thu 00:02:00 9.1176 -25.6747 208° Southwest  Level Estimated
Thu 00:03:00 9.0092 -25.7331 208° Southwest  Level Estimated
Thu 00:04:00 8.9009 -25.7916 208° Southwest  Level Estimated
Thu 00:05:00 8.7926 -25.8499 208° Southwest  Level Estimated
Thu 00:06:00 8.6843 -25.9083 208° Southwest  Level Estimated
Thu 00:07:00 8.5759 -25.9666 208° Southwest  Level Estimated
Thu 00:08:00 8.4676 -26.0249 208° Southwest  Level Estimated
Thu 00:09:00 8.3592 -26.0831 208° Southwest  Level Estimated
Thu 00:10:00 8.2508 -26.1413 208° Southwest  Level Estimated
Thu 00:11:00 8.1425 -26.1995 208° Southwest  Level Estimated
Thu 00:12:00 8.0341 -26.2577 208° Southwest  Level Estimated
Thu 00:13:00 7.9257 -26.3158 208° Southwest  Level Estimated
Thu 00:14:00 7.8173 -26.3739 208° Southwest  Level Estimated
Thu 00:15:00 7.7089 -26.4319 208° Southwest  Level Estimated
Thu 00:16:00 7.6004 -26.4900 208° Southwest  Level Estimated
Thu 00:17:00 7.4920 -26.5480 208° Southwest  Level Estimated
Thu 00:18:00 7.3836 -26.6059 208° Southwest  Level Estimated
Thu 00:19:00 7.2751 -26.6639 208° Southwest  Level Estimated
Thu 00:20:00 7.1667 -26.7218 208° Southwest  Level Estimated
Thu 00:21:00 7.0582 -26.7797 208° Southwest  Level Estimated
Thu 00:22:00 6.9498 -26.8375 208° Southwest  Level Estimated
Thu 00:23:00 6.8413 -26.8954 208° Southwest  Level Estimated
Thu 00:24:00 6.7328 -26.9532 208° Southwest  Level Estimated
Thu 00:25:00 6.6243 -27.0110 208° Southwest  Level Estimated
Thu 00:26:00 6.5159 -27.0687 208° Southwest  Level Estimated
Thu 00:27:00 6.4074 -27.1264 208° Southwest  Level Estimated
Thu 00:28:00 6.2989 -27.1842 208° Southwest  Level Estimated
Thu 00:29:00 6.1903 -27.2418 208° Southwest  Level Estimated
Thu 00:30:00 6.0818 -27.2995 208° Southwest  Level Estimated
Thu 00:31:00 5.9733 -27.3571 208° Southwest  Level Estimated
Thu 00:32:00 5.8648 -27.4147 208° Southwest  Level Estimated
Thu 00:33:00 5.7562 -27.4723 208° Southwest  Level Estimated
Thu 00:34:00 5.6477 -27.5299 208° Southwest  Level Estimated
Thu 00:35:00 5.5392 -27.5875 208° Southwest  Level Estimated
Thu 00:36:00 5.4306 -27.6450 208° Southwest  Level Estimated
Thu 00:37:00 5.3220 -27.7025 208° Southwest  Level Estimated
Thu 00:38:00 5.2135 -27.7600 208° Southwest  Level Estimated
Thu 00:39:00 5.1049 -27.8174 208° Southwest  Level Estimated
Thu 00:40:00 4.9963 -27.8749 208° Southwest  Level Estimated
Thu 00:41:00 4.8878 -27.9323 208° Southwest  Level Estimated
Thu 00:42:00 4.7792 -27.9897 208° Southwest  Level Estimated
Thu 00:43:00 4.6706 -28.0471 208° Southwest  Level Estimated
Thu 00:44:00 4.5620 -28.1045 208° Southwest  Level Estimated
Thu 00:45:00 4.4534 -28.1618 208° Southwest  Level Estimated
Thu 00:46:00 4.3448 -28.2192 208° Southwest  Level Estimated
Thu 00:47:00 4.2362 -28.2765 208° Southwest  Level Estimated
Thu 00:48:00 4.1276 -28.3338 208° Southwest  Level Estimated
Thu 00:49:00 4.0190 -28.3911 208° Southwest  Level Estimated
Thu 00:50:00 3.9104 -28.4483 208° Southwest  Level Estimated
Thu 00:51:00 3.8017 -28.5056 208° Southwest  Level Estimated
Thu 00:52:00 3.6931 -28.5628 208° Southwest  Level Estimated
Thu 00:53:00 3.5845 -28.6201 208° Southwest  Level Estimated
Thu 00:54:00 3.4758 -28.6773 208° Southwest  Level Estimated
Thu 00:55:00 3.3672 -28.7345 208° Southwest  Level Estimated
Thu 00:56:00 3.2586 -28.7917 208° Southwest  Level Estimated
Thu 00:57:00 3.1499 -28.8489 208° Southwest  Level Estimated
Thu 00:58:00 3.0413 -28.9060 208° Southwest  Level Estimated
Thu 00:59:00 2.9326 -28.9632 208° Southwest  Level Estimated
Thu 01:00:00 2.8240 -29.0203 208° Southwest  Level Estimated
Thu 01:01:00 2.7153 -29.0774 208° Southwest  Level Estimated
Thu 01:02:00 2.6067 -29.1346 208° Southwest  Level Estimated
Thu 01:03:00 2.4980 -29.1917 208° Southwest  Level Estimated
Thu 01:04:00 2.3893 -29.2488 208° Southwest  Level Estimated
Thu 01:05:00 2.2807 -29.3059 208° Southwest  Level Estimated
Thu 01:06:00 2.1720 -29.3630 208° Southwest  Level Estimated
Thu 01:07:00 2.0633 -29.4200 208° Southwest  Level Estimated
Thu 01:08:00 1.9547 -29.4771 208° Southwest  Level Estimated
Thu 01:09:00 1.8460 -29.5342 208° Southwest  Level Estimated
Thu 01:10:00 1.7373 -29.5912 208° Southwest  Level Estimated
Thu 01:11:00 1.6286 -29.6483 208° Southwest  Level Estimated
Thu 01:12:00 1.5200 -29.7053 208° Southwest  Level Estimated
Thu 01:13:00 1.4113 -29.7624 208° Southwest  Level Estimated
Thu 01:14:00 1.3026 -29.8194 208° Southwest  Level Estimated
Thu 01:15:00 1.1939 -29.8764 208° Southwest  Level Estimated
Thu 01:16:00 1.0852 -29.9334 208° Southwest  Level Estimated
Thu 01:17:00 0.9766 -29.9905 208° Southwest  Level Estimated
Thu 01:18:00 0.8679 -30.0475 208° Southwest  Level Estimated
Thu 01:19:00 0.7592 -30.1045 208° Southwest  Level Estimated
Thu 01:20:00 0.6505 -30.1615 208° Southwest  Level Estimated
Thu 01:21:00 0.5418 -30.2185 208° Southwest  Level Estimated
Thu 01:22:00 0.4331 -30.2755 208° Southwest  Level Estimated
Thu 01:23:00 0.3244 -30.3325 208° Southwest  Level Estimated
Thu 01:24:00 0.2157 -30.3895 208° Southwest  Level Estimated
Thu 01:25:00 0.1070 -30.4465 208° Southwest  Level Estimated
Thu 01:26:00 -0.0016 -30.5035 208° Southwest  Level Estimated
Thu 01:27:00 -0.1103 -30.5605 208° Southwest  Level Estimated
Thu 01:28:00 -0.2190 -30.6175 208° Southwest  Level Estimated
Thu 01:29:00 -0.3277 -30.6745 208° Southwest  Level Estimated
Thu 01:30:00 -0.4364 -30.7315 208° Southwest  Level Estimated
Thu 01:31:00 -0.5451 -30.7885 208° Southwest  Level Estimated
Thu 01:32:00 -0.6538 -30.8455 208° Southwest  Level Estimated
Thu 01:33:00 -0.7625 -30.9025 208° Southwest  Level Estimated
Thu 01:34:00 -0.8712 -30.9595 208° Southwest  Level Estimated
Thu 01:35:00 -0.9799 -31.0165 208° Southwest  Level Estimated
Thu 01:36:00 -1.0885 -31.0736 208° Southwest  Level Estimated
Thu 01:37:00 -1.1972 -31.1306 208° Southwest  Level Estimated
Thu 01:38:00 -1.3059 -31.1876 208° Southwest  Level Estimated
Thu 01:39:00 -1.4146 -31.2446 208° Southwest  Level Estimated
Thu 01:40:00 -1.5233 -31.3017 208° Southwest  Level Estimated
Thu 01:41:00 -1.6319 -31.3587 208° Southwest  Level Estimated
Thu 01:42:00 -1.7406 -31.4158 208° Southwest  Level Estimated
Thu 01:43:00 -1.8493 -31.4728 208° Southwest  Level Estimated
Thu 01:44:00 -1.9580 -31.5299 208° Southwest  Level Estimated
Thu 01:45:00 -2.0666 -31.5870 208° Southwest  Level Estimated
Thu 01:46:00 -2.1753 -31.6440 208° Southwest  Level Estimated
Thu 01:47:00 -2.2840 -31.7011 208° Southwest  Level Estimated
Thu 01:48:00 -2.3926 -31.7582 208° Southwest  Level Estimated
Thu 01:49:00 -2.5013 -31.8153 208° Southwest  Level Estimated
Thu 01:50:00 -2.6100 -31.8724 208° Southwest  Level Estimated
Thu 01:51:00 -2.7186 -31.9296 208° Southwest  Level Estimated
Thu 01:52:00 -2.8273 -31.9867 208° Southwest  Level Estimated
Thu 01:53:00 -2.9359 -32.0438 208° Southwest  Level Estimated
Thu 01:54:00 -3.0446 -32.1010 208° Southwest  Level Estimated
Thu 01:55:00 -3.1532 -32.1581 208° Southwest  Level Estimated
Thu 01:56:00 -3.2619 -32.2153 208° Southwest  Level Estimated
Thu 01:57:00 -3.3705 -32.2725 208° Southwest  Level Estimated
Thu 01:58:00 -3.4791 -32.3297 208° Southwest  Level Estimated
Thu 01:59:00 -3.5878 -32.3869 208° Southwest  Level Estimated
Thu 02:00:00 -3.6964 -32.4442 208° Southwest  Level Estimated
Thu 02:01:00 -3.8050 -32.5014 208° Southwest  Level Estimated
Thu 02:02:00 -3.9137 -32.5587 208° Southwest  Level Estimated
Thu 02:03:00 -4.0223 -32.6159 208° Southwest  Level Estimated
Thu 02:04:00 -4.1309 -32.6732 208° Southwest  Level Estimated
Thu 02:05:00 -4.2395 -32.7305 208° Southwest  Level Estimated
Thu 02:06:00 -4.3481 -32.7879 208° Southwest  Level Estimated
Thu 02:06:47 -7.6050 -34.3650 208° Southwest 496 571 36,200  Level FlightAware
Thu 02:07:00 -4.4567 -32.8452 208° Southwest  Level Estimated
Thu 02:08:00 -4.5653 -32.9025 208° Southwest  Level Estimated
Thu 02:08:12 -7.7000 -34.4140 207° Southwest 496 571 37,100  Level FlightAware
Thu 02:08:52 -7.7700 -34.4500 207° Southwest 496 571 37,100  Level FlightAware
Thu 02:09:32 -7.8390 -34.4860 207° Southwest 496 571 37,100  Level FlightAware
Thu 02:10:12 -7.9090 -34.5210 206° Southwest 496 571 37,100  Level FlightAware
Thu 02:11:02 -7.9960 -34.5660 207° Southwest 496 571 37,100  Level FlightAware
Thu 02:11:42 -8.0650 -34.6020 207° Southwest 496 571 37,100  Level FlightAware
Thu 02:12:22 -8.1350 -34.6380 207° Southwest 496 571 37,100  Level FlightAware
Thu 02:13:02 -8.2040 -34.6730 207° Southwest 496 571 37,100  Level FlightAware
Thu 02:13:42 -8.2740 -34.7090 207° Southwest 496 571 37,100  Level FlightAware
Thu 02:14:22 -8.3430 -34.7450 207° Southwest 496 571 37,100  Level FlightAware
Thu 02:15:12 -8.4300 -34.7900 207° Southwest 496 571 37,100  Level FlightAware
Thu 02:15:52 -8.5000 -34.8260 207° Southwest 496 571 37,100  Level FlightAware
Thu 02:16:32 -8.5690 -34.8610 207° Southwest 496 571 37,100  Level FlightAware
Thu 02:17:12 -8.6390 -34.8970 207° Southwest 496 571 37,100 11 Level FlightAware
Thu 02:19:00 -8.8331 -35.0037 209° Southwest  Level Estimated
Thu 02:20:00 -8.9409 -35.0631 209° Southwest  Level Estimated
Thu 02:21:00 -9.0487 -35.1225 209° Southwest  Level Estimated
Thu 02:22:00 -9.1565 -35.1819 209° Southwest  Level Estimated
Thu 02:23:00 -9.2643 -35.2413 209° Southwest  Level Estimated
Thu 02:24:00 -9.3721 -35.3008 209° Southwest  Level Estimated
Thu 02:25:00 -9.4799 -35.3604 209° Southwest  Level Estimated
Thu 02:26:00 -9.5876 -35.4199 209° Southwest  Level Estimated
Thu 02:27:00 -9.6954 -35.4795 209° Southwest  Level Estimated
Thu 02:28:00 -9.8031 -35.5392 209° Southwest  Level Estimated
Thu 02:29:00 -9.9108 -35.5988 209° Southwest  Level Estimated
Thu 02:30:00 -10.0186 -35.6586 209° Southwest  Level Estimated
Thu 02:31:00 -10.1263 -35.7183 209° Southwest  Level Estimated
Thu 02:32:00 -10.2340 -35.7781 209° Southwest  Level Estimated
Thu 02:33:00 -10.3417 -35.8380 209° Southwest  Level Estimated
Thu 02:34:00 -10.4493 -35.8978 209° Southwest  Level Estimated
Thu 02:35:00 -10.5570 -35.9578 209° Southwest  Level Estimated
Thu 02:36:00 -10.6646 -36.0177 209° Southwest  Level Estimated
Thu 02:37:00 -10.7723 -36.0777 209° Southwest  Level Estimated
Thu 02:38:00 -10.8799 -36.1378 209° Southwest  Level Estimated
Thu 02:39:00 -10.9875 -36.1979 209° Southwest  Level Estimated
Thu 02:40:00 -11.0951 -36.2580 209° Southwest  Level Estimated
Thu 02:41:00 -11.2027 -36.3182 209° Southwest  Level Estimated
Thu 02:42:00 -11.3103 -36.3784 209° Southwest  Level Estimated
Thu 02:43:00 -11.4179 -36.4387 209° Southwest  Level Estimated
Thu 02:44:00 -11.5254 -36.4990 209° Southwest  Level Estimated
Thu 02:45:00 -11.6330 -36.5594 209° Southwest  Level Estimated
Thu 02:46:00 -11.7405 -36.6198 209° Southwest  Level Estimated
Thu 02:47:00 -11.8480 -36.6802 209° Southwest  Level Estimated
Thu 02:48:00 -11.9555 -36.7407 209° Southwest  Level Estimated
Thu 02:49:00 -12.0630 -36.8013 209° Southwest  Level Estimated
Thu 02:50:00 -12.1705 -36.8619 209° Southwest  Level Estimated
Thu 02:51:00 -12.2780 -36.9225 209° Southwest  Level Estimated
Thu 02:52:00 -12.3854 -36.9832 209° Southwest  Level Estimated
Thu 02:53:00 -12.4929 -37.0440 209° Southwest  Level Estimated
Thu 02:54:00 -12.6003 -37.1048 209° Southwest  Level Estimated
Thu 02:55:00 -12.7077 -37.1656 209° Southwest  Level Estimated
Thu 02:56:00 -12.8151 -37.2265 209° Southwest  Level Estimated
Thu 02:57:00 -12.9225 -37.2875 209° Southwest  Level Estimated
Thu 02:58:00 -13.0298 -37.3485 209° Southwest  Level Estimated
Thu 02:59:00 -13.1372 -37.4096 209° Southwest  Level Estimated
Thu 03:00:00 -13.2445 -37.4707 209° Southwest  Level Estimated
Thu 03:01:00 -13.3519 -37.5318 209° Southwest  Level Estimated
Thu 03:02:00 -13.4592 -37.5931 209° Southwest  Level Estimated
Thu 03:03:00 -13.5665 -37.6543 209° Southwest  Level Estimated
Thu 03:04:00 -13.6738 -37.7157 209° Southwest  Level Estimated
Thu 03:05:00 -13.7810 -37.7771 209° Southwest  Level Estimated
Thu 03:06:00 -13.8883 -37.8385 209° Southwest  Level Estimated
Thu 03:07:00 -13.9955 -37.9000 209° Southwest  Level Estimated
Thu 03:08:00 -14.1027 -37.9616 209° Southwest  Level Estimated
Thu 03:09:00 -14.2100 -38.0232 209° Southwest  Level Estimated
Thu 03:10:00 -14.3171 -38.0849 209° Southwest  Level Estimated
Thu 03:11:00 -14.4243 -38.1466 209° Southwest  Level Estimated
Thu 03:12:00 -14.5315 -38.2084 209° Southwest  Level Estimated
Thu 03:13:00 -14.6386 -38.2702 209° Southwest  Level Estimated
Thu 03:14:00 -14.7457 -38.3321 209° Southwest  Level Estimated
Thu 03:15:00 -14.8528 -38.3941 209° Southwest  Level Estimated
Thu 03:16:00 -14.9599 -38.4561 209° Southwest  Level Estimated
Thu 03:17:00 -15.0670 -38.5182 209° Southwest  Level Estimated
Thu 03:18:00 -15.1741 -38.5804 209° Southwest  Level Estimated
Thu 03:19:00 -15.2811 -38.6426 209° Southwest  Level Estimated
Thu 03:20:00 -15.3881 -38.7049 209° Southwest  Level Estimated
Thu 03:21:00 -15.4951 -38.7673 209° Southwest  Level Estimated
Thu 03:22:00 -15.6021 -38.8297 209° Southwest  Level Estimated
Thu 03:23:00 -15.7091 -38.8922 209° Southwest  Level Estimated
Thu 03:24:00 -15.8161 -38.9547 209° Southwest  Level Estimated
Thu 03:25:00 -15.9230 -39.0173 209° Southwest  Level Estimated
Thu 03:26:00 -16.0299 -39.0800 209° Southwest  Level Estimated
Thu 03:27:00 -16.1368 -39.1427 209° Southwest  Level Estimated
Thu 03:28:00 -16.2437 -39.2056 209° Southwest  Level Estimated
Thu 03:29:00 -16.3506 -39.2684 209° Southwest  Level Estimated
Thu 03:30:00 -16.4574 -39.3314 209° Southwest  Level Estimated
Thu 03:31:00 -16.5642 -39.3944 209° Southwest  Level Estimated
Thu 03:32:00 -16.6710 -39.4575 210° Southwest  Level Estimated
Thu 03:33:00 -16.7778 -39.5207 210° Southwest  Level Estimated
Thu 03:34:00 -16.8846 -39.5839 210° Southwest  Level Estimated
Thu 03:35:00 -16.9914 -39.6472 210° Southwest  Level Estimated
Thu 03:36:00 -17.0981 -39.7106 210° Southwest  Level Estimated
Thu 03:37:00 -17.2048 -39.7740 210° Southwest  Level Estimated
Thu 03:38:00 -17.3115 -39.8375 210° Southwest  Level Estimated
Thu 03:38:47 -18.4440 -40.2170 210° Southwest 452 520 38,000  Level FlightAware
Thu 03:39:00 -17.4181 -39.9011 210° Southwest  Level Estimated
Thu 03:39:27 -18.5150 -40.2580 209° Southwest 451 519 38,000  Level FlightAware
Thu 03:40:12 -18.6010 -40.3070 208° Southwest 450 518 38,000  Level FlightAware
Thu 03:40:42 -18.6470 -40.3330 208° Southwest 449 517 38,000  Level FlightAware
Thu 03:41:32 -18.7440 -40.3890 209° Southwest 449 517 38,000  Level FlightAware
Thu 03:42:17 -18.8160 -40.4300 208° Southwest 451 519 38,000  Level FlightAware
Thu 03:42:57 -18.8750 -40.4640 209° Southwest 450 518 38,000  Level FlightAware
Thu 03:43:37 -18.9780 -40.5230 208° Southwest 449 517 38,000  Level FlightAware
Thu 03:44:22 -19.0500 -40.5640 208° Southwest 450 518 38,000  Level FlightAware
Thu 03:45:02 -19.1220 -40.6050 208° Southwest 450 518 38,000  Level FlightAware
Thu 03:45:47 -19.2080 -40.6550 209° Southwest 445 512 38,000  Level FlightAware
Thu 03:46:27 -19.2830 -40.6990 209° Southwest 445 512 38,000  Level FlightAware
Thu 03:47:12 -19.3650 -40.7460 208° Southwest 444 511 38,000  Level FlightAware
Thu 03:47:52 -19.4400 -40.7890 208° Southwest 442 509 38,000  Level FlightAware
Thu 03:48:32 -19.5100 -40.8280 208° Southwest 445 512 38,000  Level FlightAware
Thu 03:49:17 -19.5970 -40.8700 204° Southwest 448 516 38,000  Level FlightAware
Thu 03:49:57 -19.6710 -40.9040 203° Southwest 449 517 38,000  Level FlightAware
Thu 03:50:42 -19.7580 -40.9430 203° Southwest 448 516 38,000  Level FlightAware
Thu 03:51:12 -19.8180 -40.9700 203° Southwest 447 514 38,000  Level FlightAware
Thu 03:52:02 -19.9110 -41.0120 203° Southwest 447 514 38,000  Level FlightAware
Thu 03:52:42 -19.9910 -41.0490 203° Southwest 446 513 38,000  Level FlightAware
Thu 03:53:17 -20.0520 -41.0770 203° Southwest 447 514 38,000  Level FlightAware
Thu 03:54:12 -20.1540 -41.1230 203° Southwest 449 517 38,000  Level FlightAware
Thu 03:54:52 -20.2380 -41.1620 204° Southwest 451 519 38,000  Level FlightAware
Thu 03:55:47 -20.3430 -41.2100 203° Southwest 452 520 38,000  Level FlightAware
Thu 03:56:27 -20.4200 -41.2450 203° Southwest 454 522 38,000  Level FlightAware
Thu 03:57:12 -20.4840 -41.2750 204° Southwest 455 524 38,000  Level FlightAware
Thu 03:57:52 -20.5720 -41.3150 203° Southwest 456 525 38,000  Level FlightAware
Thu 03:58:32 -20.3230 -41.2010 23° Northeast 38,000  Level FlightAware
Thu 03:59:17 -20.7440 -41.3950 203° Southwest 462 532 38,000  Level FlightAware
Thu 04:00:02 -20.8330 -41.4360 203° Southwest 464 534 38,000  Level FlightAware
Thu 04:00:32 -20.8970 -41.4660 204° Southwest 466 536 38,000  Level FlightAware
Thu 04:01:22 -20.9820 -41.5050 203° Southwest 467 537 38,000  Level FlightAware
Thu 04:02:07 -21.0910 -41.5560 204° Southwest 467 537 38,000  Level FlightAware
Thu 04:02:47 -21.1730 -41.5940 203° Southwest 469 540 38,000  Level FlightAware
Thu 04:03:32 -21.2580 -41.6330 203° Southwest 470 541 38,000 -565 Level FlightAware
Thu 04:04:12 -21.3400 -41.6720 204° Southwest 470 541 37,200 -1,125 Descending FlightAware
Thu 04:04:52 -21.4190 -41.7080 203° Southwest 467 537 36,500 -1,200 Descending FlightAware
Thu 04:05:37 -21.5110 -41.7510 203° Southwest 471 542 35,500 -988 Descending FlightAware
Thu 04:06:17 -21.5890 -41.7880 204° Southwest 464 534 35,100 -706 Descending FlightAware
Thu 04:07:02 -21.6780 -41.8300 204° Southwest 463 533 34,500 -776 Descending FlightAware
Thu 04:07:42 -21.7550 -41.8660 203° Southwest 462 532 34,000 -825 Descending FlightAware
Thu 04:08:22 -21.8340 -41.9030 203° Southwest 462 532 33,400 -1,200 Descending FlightAware
Thu 04:09:07 -21.9240 -41.9450 203° Southwest 456 525 32,300 -1,624 Descending FlightAware
Thu 04:09:47 -22.0020 -41.9820 204° Southwest 452 520 31,100 -1,650 Descending FlightAware
Thu 04:10:27 -22.0760 -42.0170 204° Southwest 445 512 30,100 -1,482 Descending FlightAware
Thu 04:11:12 -22.1600 -42.0560 203° Southwest 437 503 29,000 -1,482 Descending FlightAware
Thu 04:11:52 -22.2330 -42.0910 204° Southwest 427 491 28,000 -1,350 Descending FlightAware
Thu 04:12:32 -22.3050 -42.1250 204° Southwest 416 479 27,200 -1,341 Descending FlightAware
Thu 04:13:17 -22.3830 -42.1660 206° Southwest 405 466 26,100 -1,482 Descending FlightAware
Thu 04:13:57 -22.4360 -42.2210 224° Southwest 399 459 25,100 -1,271 Descending FlightAware
Thu 04:14:42 -22.4890 -42.2890 230° Southwest 397 457 24,300 -918 Descending FlightAware
Thu 04:15:22 -22.5370 -42.3490 229° Southwest 395 455 23,800 -825 Descending FlightAware
Thu 04:16:02 -22.5840 -42.4090 230° Southwest 392 451 23,200 -847 Descending FlightAware
Thu 04:16:47 -22.6390 -42.4770 229° Southwest 388 447 22,600 -776 Descending FlightAware
Thu 04:17:27 -22.6850 -42.5360 230° Southwest 378 435 22,100 -847 Descending FlightAware
Thu 04:18:12 -22.7050 -42.6130 254° West 357 411 21,400 -988 Descending FlightAware
Thu 04:18:52 -22.7080 -42.6820 267° West 339 390 20,700 -975 Descending FlightAware
Thu 04:19:32 -22.7100 -42.7470 268° West 321 369 20,100 -1,129 Descending FlightAware
Thu 04:20:17 -22.7140 -42.8200 267° West 312 359 19,100 -776 Descending FlightAware
Thu 04:20:57 -22.7090 -42.8820 275° West 316 364 19,000 -71 Descending FlightAware
Thu 04:21:42 -22.6920 -42.9500 285° West 320 368 19,000 -282 Level FlightAware
Thu 04:22:22 -22.6760 -43.0110 286° West 315 362 18,600 -750 Descending FlightAware
Thu 04:23:02 -22.6610 -43.0710 285° West 290 334 18,000 -1,129 Descending FlightAware
Thu 04:23:47 -22.6450 -43.1330 286° West 278 320 17,000 -1,341 Descending FlightAware
Thu 04:24:27 -22.6310 -43.1850 286° West 270 311 16,100 -1,341 Descending FlightAware
Thu 04:25:12 -22.6160 -43.2430 286° West 264 304 15,100 -1,575 Descending FlightAware
Thu 04:25:47 -22.6050 -43.2880 285° West 262 302 14,000 -1,800 Descending FlightAware
Thu 04:26:32 -22.5900 -43.3440 286° West 260 299 12,700 -1,667 Descending FlightAware
Thu 04:27:17 -22.5770 -43.4000 284° West 248 285 11,500 -1,412 Descending FlightAware
Thu 04:27:57 -22.5680 -43.4370 285° West 240 276 10,700 -1,385 Descending FlightAware
Thu 04:28:22 -22.5610 -43.4650 285° West 237 273 10,000 -982 Descending FlightAware
Thu 04:28:52 -22.5540 -43.4980 283° West 237 273 9,800 -1,600 Descending FlightAware
Thu 04:29:07 -22.5490 -43.5150 288° West 237 273 8,800 -1,418 Descending FlightAware
Thu 04:29:47 -22.5390 -43.5570 284° West 237 273 8,500 -1,200 Descending FlightAware
Thu 04:30:02 -22.5420 -43.5800 262° West 239 275 7,700 -2,200 Descending FlightAware
Thu 04:30:17 -22.5560 -43.5950 225° Southwest 242 278 7,400 -960 Descending FlightAware
Thu 04:30:27 -22.5650 -43.5980 197° South 243 280 7,300 -480 Descending FlightAware
Thu 04:31:07 -22.6070 -43.6120 197° South 240 276 7,000 -900 Descending FlightAware
Thu 04:31:47 -22.6530 -43.5990 165° South 247 284 6,100 -750 Descending FlightAware
Thu 04:32:27 -22.6700 -43.5710 123° Southeast 248 285 6,000 -960 Descending FlightAware
Thu 04:33:02 -22.6930 -43.5280 120° Southeast 235 270 4,900 -1,527 Descending FlightAware
Thu 04:33:22 -22.7040 -43.5080 121° Southeast 220 253 4,600 -327 Descending FlightAware
Thu 04:33:57 -22.7180 -43.4810 119° Southeast 218 251 4,600 -655 Level FlightAware
Thu 04:34:17 -22.7210 -43.4520 96° East 197 227 4,000 -1,350 Descending FlightAware
Thu 04:34:37 -22.7220 -43.4360 94° East 190 219 3,700 -1,320 Descending FlightAware
Thu 04:35:07 -22.7230 -43.4080 92° East 181 208 2,900 -1,200 Descending FlightAware
Thu 04:35:32 -22.7280 -43.3910 108° East 171 197 2,600 -600 Descending FlightAware
Thu 04:36:17 -22.7510 -43.3580 127° Southeast 160 184 2,200 -847 Descending FlightAware
Thu 04:36:57 -22.7670 -43.3320 124° Southeast 163 188 1,400 -1,108 Descending FlightAware
Thu 04:37:22 -22.7790 -43.3140 126° Southeast 153 176 1,000 -923 Descending FlightAware
Thu 04:38:02 -22.7960 -43.2890 126° Southeast 157 181 400 -800 Descending FlightAware
Thu 04:38:22 -22.8030 -43.2770 122° Southeast 157 181 200 -267 Descending FlightAware
Thu 04:38:47 -22.8140 -43.2620 129° Southeast 157 181 200  Level FlightAware
Thu 04:42:00 -22.8089 -43.2436 344° North  Level Estimated

Login

Don't have an account? Register now (free) for customized features, flight alerts, and more!